Time;durP1;ratioP1;P1;durP2;ratioP2;P2;SDS_P1;SDS_P2;PMS_P1;PMS_P2;Temp;Humidity;BMP_temperature;BMP_pressure;BME280_temperature;BME280_humidity;BME280_pressure;Samples;Min_cycle;Max_cycle;Signal;HPM_P1;HPM_P2
2022/01/04 00:01:12;;;;;;;3.75;3.30;;;9.70;99.90;;;;;;5092897;28;20438;-54
2022/01/04 00:03:38;;;;;;;5.30;2.30;;;9.80;99.90;;;;;;5094406;28;20081;-54
2022/01/04 00:06:03;;;;;;;2.95;2.42;;;9.70;99.90;;;;;;5093616;28;20024;-51
2022/01/04 00:08:29;;;;;;;3.53;3.22;;;9.80;99.90;;;;;;5088939;28;20024;-55
2022/01/04 00:11:05;;;;;;;3.50;2.70;;;9.80;99.90;;;;;;5094025;28;20072;-57
2022/01/04 00:13:31;;;;;;;2.95;2.65;;;9.70;99.90;;;;;;5094801;28;20091;-54
2022/01/04 00:15:57;;;;;;;2.88;2.65;;;9.70;99.90;;;;;;5096438;28;20109;-59
2022/01/04 00:18:24;;;;;;;4.18;2.42;;;9.70;99.90;;;;;;5079703;28;20024;-59
2022/01/04 00:20:50;;;;;;;4.70;2.90;;;9.70;99.90;;;;;;5094655;28;20031;-57
2022/01/04 00:23:17;;;;;;;3.45;3.03;;;9.60;99.90;;;;;;5093523;28;20028;-57
2022/01/04 00:25:43;;;;;;;6.07;3.13;;;9.60;99.90;;;;;;5093208;28;20020;-58
2022/01/04 00:28:09;;;;;;;4.97;2.80;;;9.60;99.90;;;;;;5093307;28;20020;-54
2022/01/04 00:30:36;;;;;;;5.20;3.88;;;9.60;99.90;;;;;;5092995;28;20399;-54
2022/01/04 00:33:01;;;;;;;5.22;3.15;;;9.60;99.90;;;;;;5093313;28;20519;-57
2022/01/04 00:35:27;;;;;;;5.18;3.30;;;9.60;99.90;;;;;;5074862;28;20032;-51
2022/01/04 00:37:53;;;;;;;5.25;3.08;;;9.60;99.90;;;;;;5093437;28;20027;-57
2022/01/04 00:40:18;;;;;;;9.98;4.43;;;9.60;99.90;;;;;;5092705;28;20070;-57
2022/01/04 00:42:44;;;;;;;5.22;4.25;;;9.70;99.90;;;;;;5092838;28;20032;-57
2022/01/04 00:45:09;;;;;;;4.80;4.10;;;9.70;99.90;;;;;;5093375;28;20313;-55
2022/01/04 00:49:09;;;;;;;6.20;4.35;;;9.70;99.90;;;;;;5075684;28;20150;-53
2022/01/04 00:50:32;;;;;;;5.83;4.67;;;9.70;99.90;;;;;;5092527;28;20099;-52
2022/01/04 00:52:58;;;;;;;5.80;4.90;;;9.70;99.90;;;;;;5089139;28;20020;-51
2022/01/04 00:55:24;;;;;;;10.93;6.18;;;9.70;99.90;;;;;;5092828;28;20027;-55
2022/01/04 00:57:50;;;;;;;7.80;6.10;;;9.70;99.90;;;;;;5092770;28;20050;-53
2022/01/04 01:00:19;;;;;;;7.78;6.13;;;9.60;99.90;;;;;;5074085;28;20107;-50
2022/01/04 01:02:44;;;;;;;11.43;6.30;;;9.70;99.90;;;;;;5072584;28;20033;-55
2022/01/04 01:05:11;;;;;;;13.23;8.77;;;9.70;99.90;;;;;;5072479;28;20028;-56
2022/01/04 01:07:38;;;;;;;15.25;9.05;;;9.70;99.90;;;;;;5072516;28;20155;-54
2022/01/04 01:10:28;;;;;;;23.67;13.95;;;9.70;99.90;;;;;;5072513;28;20029;-52
2022/01/04 01:12:53;;;;;;;9.07;7.10;;;9.70;99.90;;;;;;5072454;28;20115;-50
2022/01/04 01:15:19;;;;;;;11.70;7.15;;;9.70;99.90;;;;;;5072395;28;20558;-48
2022/01/04 01:17:45;;;;;;;10.20;7.30;;;9.70;99.90;;;;;;5072393;28;20024;-53
2022/01/04 01:20:11;;;;;;;9.20;6.47;;;9.60;99.90;;;;;;5071695;28;20035;-53
2022/01/04 01:22:37;;;;;;;9.38;7.05;;;9.70;99.90;;;;;;5071702;28;20035;-53
2022/01/04 01:25:04;;;;;;;10.15;6.05;;;9.70;99.90;;;;;;5071644;28;20021;-55
2022/01/04 01:27:29;;;;;;;9.60;5.72;;;9.70;99.90;;;;;;5071872;28;20029;-55
2022/01/04 01:29:55;;;;;;;7.00;5.65;;;9.80;99.90;;;;;;5071610;28;20020;-51
2022/01/04 01:32:20;;;;;;;10.75;5.32;;;9.70;99.90;;;;;;5071827;28;20036;-53
2022/01/04 01:34:46;;;;;;;7.32;4.35;;;9.80;99.90;;;;;;5071783;28;20399;-53
2022/01/04 01:37:11;;;;;;;6.18;4.18;;;9.80;99.90;;;;;;5071841;28;20059;-47
2022/01/04 01:39:37;;;;;;;6.88;5.10;;;9.90;99.90;;;;;;5071740;28;20032;-51
2022/01/04 01:42:03;;;;;;;4.82;4.15;;;9.80;99.90;;;;;;5071511;28;20485;-49
2022/01/04 01:44:31;;;;;;;8.05;4.65;;;9.90;99.90;;;;;;5071828;28;20082;-51
2022/01/04 01:46:57;;;;;;;5.65;4.00;;;9.90;99.90;;;;;;5071632;28;20021;-48
2022/01/04 01:49:23;;;;;;;8.05;4.63;;;9.90;99.90;;;;;;5071266;28;20025;-47
2022/01/04 01:51:49;;;;;;;7.65;4.00;;;9.90;99.90;;;;;;5070805;28;20028;-52
2022/01/04 01:54:15;;;;;;;7.07;3.63;;;9.90;99.90;;;;;;5071507;28;20021;-50
2022/01/04 01:56:41;;;;;;;4.03;3.53;;;9.90;99.90;;;;;;5071602;28;20029;-54
2022/01/04 01:59:07;;;;;;;6.88;4.20;;;10.00;99.90;;;;;;5071262;28;20035;-53
2022/01/04 02:01:32;;;;;;;4.32;3.25;;;10.00;99.90;;;;;;5071416;28;20032;-51
2022/01/04 02:03:58;;;;;;;4.88;3.42;;;10.00;99.90;;;;;;5071366;28;20037;-52
2022/01/04 02:06:24;;;;;;;5.40;3.65;;;10.10;99.90;;;;;;5071380;28;20081;-51
2022/01/04 02:08:50;;;;;;;4.18;3.60;;;10.00;99.90;;;;;;5071516;28;20012;-50
2022/01/04 02:11:17;;;;;;;8.30;3.45;;;10.10;99.90;;;;;;5071126;28;20028;-50
2022/01/04 02:13:42;;;;;;;8.20;3.45;;;10.10;99.90;;;;;;5071418;28;20029;-50
2022/01/04 02:16:10;;;;;;;3.53;3.15;;;10.10;99.90;;;;;;5071248;28;20381;-52
2022/01/04 02:18:35;;;;;;;4.53;3.38;;;10.10;99.90;;;;;;5071385;28;20399;-53
2022/01/04 02:21:01;;;;;;;3.22;2.92;;;10.10;99.90;;;;;;5071022;28;20047;-55
2022/01/04 02:23:27;;;;;;;4.72;2.97;;;10.20;99.90;;;;;;5071189;28;20036;-52
2022/01/04 02:25:52;;;;;;;3.90;3.50;;;10.10;99.90;;;;;;5071112;28;20024;-51
2022/01/04 02:28:20;;;;;;;6.32;4.30;;;10.10;99.90;;;;;;5071279;28;20021;-51
2022/01/04 02:30:47;;;;;;;7.00;4.05;;;10.10;99.90;;;;;;5070715;28;20028;-52
2022/01/04 02:33:13;;;;;;;5.90;4.40;;;10.10;99.90;;;;;;5071195;28;20387;-50
2022/01/04 02:35:39;;;;;;;5.15;4.10;;;10.10;99.90;;;;;;5071175;28;20124;-51
2022/01/04 02:38:04;;;;;;;7.70;4.43;;;10.10;99.90;;;;;;5071155;28;20108;-51
2022/01/04 02:40:31;;;;;;;4.30;3.90;;;10.20;99.90;;;;;;5070587;28;20031;-54
2022/01/04 02:42:57;;;;;;;5.40;4.00;;;10.20;99.90;;;;;;5071092;28;20021;-52
2022/01/04 02:45:23;;;;;;;7.47;3.72;;;10.20;99.90;;;;;;5071402;28;20025;-53
2022/01/04 02:47:49;;;;;;;4.40;3.92;;;10.20;99.90;;;;;;5071157;28;20380;-51
2022/01/04 02:50:15;;;;;;;6.35;3.63;;;10.20;99.90;;;;;;5070841;28;20031;-49
2022/01/04 02:52:41;;;;;;;5.70;3.50;;;10.20;99.90;;;;;;5070849;28;20162;-54
2022/01/04 02:55:14;;;;;;;5.60;3.78;;;10.20;99.90;;;;;;5071059;28;20028;-51
2022/01/04 02:57:40;;;;;;;4.22;3.83;;;10.20;99.90;;;;;;5071231;28;20565;-56
2022/01/04 03:00:09;;;;;;;4.38;3.50;;;10.30;99.90;;;;;;5071105;28;20412;-54
2022/01/04 03:02:35;;;;;;;4.88;3.53;;;10.30;99.90;;;;;;5072164;28;20055;-54
2022/01/04 03:05:01;;;;;;;4.82;3.25;;;10.30;99.90;;;;;;5074716;28;20400;-52
2022/01/04 03:07:26;;;;;;;3.97;3.03;;;10.30;99.90;;;;;;5074665;28;20025;-48
2022/01/04 03:09:53;;;;;;;5.65;3.53;;;10.30;99.90;;;;;;5074265;28;20052;-51
2022/01/04 03:12:19;;;;;;;6.95;3.40;;;10.40;99.90;;;;;;5074445;28;20023;-52
2022/01/04 03:14:45;;;;;;;3.25;2.90;;;10.40;99.90;;;;;;5074477;28;20531;-51
2022/01/04 03:17:10;;;;;;;4.03;2.90;;;10.40;99.90;;;;;;5074451;28;20107;-51
2022/01/04 03:19:36;;;;;;;5.53;3.53;;;10.30;99.90;;;;;;5074015;28;20031;-49
2022/01/04 03:22:02;;;;;;;5.30;3.72;;;10.40;99.90;;;;;;5074342;28;20037;-50
2022/01/04 03:24:27;;;;;;;6.60;2.95;;;10.30;99.90;;;;;;5073761;28;20043;-56
2022/01/04 03:26:53;;;;;;;3.97;3.20;;;10.30;99.90;;;;;;5074272;28;20468;-51
2022/01/04 03:29:19;;;;;;;5.68;3.63;;;10.30;99.90;;;;;;5073913;28;20028;-52
2022/01/04 03:31:45;;;;;;;3.83;3.42;;;10.40;99.90;;;;;;5074011;28;20029;-53
2022/01/04 03:34:11;;;;;;;5.25;3.63;;;10.30;99.90;;;;;;5074111;28;20081;-50
2022/01/04 03:36:38;;;;;;;5.07;3.55;;;10.40;99.90;;;;;;5074174;28;20077;-52
2022/01/04 03:39:06;;;;;;;7.20;3.70;;;10.40;99.90;;;;;;5073965;28;20029;-49
2022/01/04 03:41:34;;;;;;;4.93;3.30;;;10.40;99.90;;;;;;5073959;28;20039;-51
2022/01/04 03:43:59;;;;;;;3.45;3.15;;;10.40;99.90;;;;;;5074092;28;20147;-53
2022/01/04 03:46:25;;;;;;;7.25;3.42;;;10.40;99.90;;;;;;5074178;28;20491;-52
2022/01/04 03:48:50;;;;;;;3.30;2.40;;;10.30;99.90;;;;;;5074014;28;20400;-52
2022/01/04 03:51:17;;;;;;;4.03;2.33;;;10.40;99.90;;;;;;5073663;28;20060;-52
2022/01/04 03:53:43;;;;;;;4.97;2.60;;;10.40;99.90;;;;;;5073881;28;20040;-54
2022/01/04 03:56:08;;;;;;;3.15;2.88;;;10.40;99.90;;;;;;5073854;28;20021;-51
2022/01/04 03:58:34;;;;;;;4.03;2.55;;;10.40;99.90;;;;;;5073758;28;20031;-50
2022/01/04 04:01:01;;;;;;;4.20;2.45;;;10.30;99.90;;;;;;5073348;28;20078;-54
2022/01/04 04:03:28;;;;;;;4.95;2.50;;;10.40;99.90;;;;;;5073645;28;20025;-55
2022/01/04 04:05:53;;;;;;;4.18;2.80;;;10.40;99.90;;;;;;5073724;28;20025;-54
2022/01/04 04:08:19;;;;;;;3.70;2.70;;;10.50;99.90;;;;;;5073864;28;20028;-50
2022/01/04 04:10:44;;;;;;;6.60;2.70;;;10.40;99.90;;;;;;5073304;28;20399;-55
2022/01/04 04:13:10;;;;;;;5.15;2.42;;;10.40;99.90;;;;;;5073500;28;20081;-53
2022/01/04 04:15:38;;;;;;;6.20;2.60;;;10.40;99.90;;;;;;5072864;28;20513;-54
2022/01/04 04:18:04;;;;;;;4.00;2.63;;;10.40;99.90;;;;;;5073606;28;20021;-53
2022/01/04 04:20:29;;;;;;;3.08;2.45;;;10.40;99.90;;;;;;5073000;28;20024;-51
2022/01/04 04:22:55;;;;;;;2.38;2.17;;;10.40;99.90;;;;;;5073189;28;20033;-54
2022/01/04 04:25:20;;;;;;;3.95;2.47;;;10.50;99.90;;;;;;5072981;28;20103;-51
2022/01/04 04:27:46;;;;;;;4.55;2.28;;;10.50;99.90;;;;;;5073189;28;20394;-53
2022/01/04 04:30:12;;;;;;;2.38;2.17;;;10.50;99.90;;;;;;5072884;28;20035;-53
2022/01/04 04:32:37;;;;;;;5.05;2.55;;;10.40;99.90;;;;;;5073026;28;20103;-50
2022/01/04 04:35:04;;;;;;;3.05;2.40;;;10.40;99.90;;;;;;5072990;28;20104;-53
2022/01/04 04:37:30;;;;;;;2.88;2.25;;;10.40;99.90;;;;;;5072993;28;20028;-53
2022/01/04 04:39:56;;;;;;;6.13;2.72;;;10.40;99.90;;;;;;5072707;28;20093;-54
2022/01/04 04:42:22;;;;;;;5.40;2.70;;;10.40;99.90;;;;;;5072542;28;20115;-49
2022/01/04 04:44:47;;;;;;;5.75;2.88;;;10.40;99.90;;;;;;5072889;28;20028;-52
2022/01/04 04:47:13;;;;;;;2.80;2.60;;;10.40;99.90;;;;;;5073257;28;20032;-52
2022/01/04 04:49:38;;;;;;;3.80;2.75;;;10.40;99.90;;;;;;5072323;28;20099;-54
2022/01/04 04:52:05;;;;;;;5.18;2.53;;;10.40;99.90;;;;;;5072443;28;20067;-48
2022/01/04 04:54:31;;;;;;;3.50;2.40;;;10.40;99.90;;;;;;5072759;28;20449;-50
2022/01/04 04:56:56;;;;;;;3.13;2.58;;;10.40;99.90;;;;;;5072662;28;20025;-53
2022/01/04 04:59:22;;;;;;;3.97;2.78;;;10.40;99.90;;;;;;5072226;28;20081;-53
2022/01/04 05:01:48;;;;;;;5.28;2.38;;;10.40;99.90;;;;;;5072329;28;20059;-51
2022/01/04 05:04:14;;;;;;;3.72;2.30;;;10.40;99.90;;;;;;5072314;28;20127;-52
2022/01/04 05:06:39;;;;;;;3.67;2.75;;;10.40;99.90;;;;;;5072398;28;20098;-53
2022/01/04 05:09:05;;;;;;;3.92;2.50;;;10.50;99.90;;;;;;5072424;28;20029;-53
2022/01/04 05:11:32;;;;;;;4.68;2.10;;;10.50;99.90;;;;;;5072102;28;20610;-53
2022/01/04 05:13:58;;;;;;;3.00;2.15;;;10.50;99.90;;;;;;5072201;28;20052;-54
2022/01/04 05:16:23;;;;;;;2.25;2.05;;;10.40;99.90;;;;;;5072295;28;20102;-48
2022/01/04 05:18:49;;;;;;;4.90;2.50;;;10.40;99.90;;;;;;5072091;28;20519;-51
2022/01/04 05:21:14;;;;;;;2.35;2.15;;;10.40;99.90;;;;;;5071758;28;20480;-54
2022/01/04 05:23:40;;;;;;;2.47;2.10;;;10.40;99.90;;;;;;5071854;28;20068;-50
2022/01/04 05:26:05;;;;;;;2.75;2.22;;;10.40;99.90;;;;;;5070642;28;20020;-53
2022/01/04 05:28:31;;;;;;;3.83;2.10;;;10.40;99.90;;;;;;5071913;28;20472;-50
2022/01/04 05:30:56;;;;;;;3.40;2.58;;;10.40;99.90;;;;;;5071699;28;20111;-52
2022/01/04 05:33:22;;;;;;;2.80;2.60;;;10.40;99.90;;;;;;5071930;28;20028;-49
2022/01/04 05:35:48;;;;;;;2.20;2.00;;;10.40;99.90;;;;;;5071887;28;20020;-53
2022/01/04 05:38:14;;;;;;;3.97;2.28;;;10.40;99.90;;;;;;5071853;28;20146;-50
2022/01/04 05:40:40;;;;;;;2.78;2.10;;;10.40;99.90;;;;;;5071292;28;20032;-55
2022/01/04 05:43:05;;;;;;;3.97;2.70;;;10.40;99.90;;;;;;5071756;28;20029;-51
2022/01/04 05:45:31;;;;;;;3.70;3.00;;;10.40;99.90;;;;;;5072221;28;20024;-51
2022/01/04 05:47:57;;;;;;;4.70;2.60;;;10.40;99.90;;;;;;5072176;28;20100;-55
2022/01/04 05:50:22;;;;;;;2.65;2.45;;;10.40;99.90;;;;;;5071704;28;20377;-52
2022/01/04 05:52:48;;;;;;;3.88;3.03;;;10.40;99.90;;;;;;5071535;28;20043;-54
2022/01/04 05:55:13;;;;;;;5.68;2.88;;;10.50;99.90;;;;;;5071660;28;20036;-50
2022/01/04 05:57:39;;;;;;;3.90;2.67;;;10.50;99.90;;;;;;5071347;28;20476;-52
2022/01/04 06:00:07;;;;;;;8.95;3.33;;;10.40;99.90;;;;;;5071469;28;20492;-53
2022/01/04 06:02:32;;;;;;;2.80;2.60;;;10.40;99.90;;;;;;5071345;28;20028;-49
2022/01/04 06:04:58;;;;;;;3.58;2.67;;;10.40;99.90;;;;;;5071571;28;20091;-49
2022/01/04 06:07:23;;;;;;;5.18;2.33;;;10.40;99.90;;;;;;5071544;28;20021;-54
2022/01/04 06:09:52;;;;;;;3.78;2.80;;;10.40;99.90;;;;;;5071206;28;20491;-52
2022/01/04 06:15:03;;;;;;;7.72;2.90;;;10.40;99.90;;;;;;5071506;28;20021;-50
2022/01/04 06:17:34;;;;;;;5.00;2.88;;;10.40;99.90;;;;;;5071730;28;20112;-48
2022/01/04 06:20:00;;;;;;;2.55;2.35;;;10.40;99.90;;;;;;5071374;28;20020;-47
2022/01/04 06:22:28;;;;;;;7.10;3.10;;;10.40;99.90;;;;;;5071786;28;20396;-51
2022/01/04 06:24:54;;;;;;;2.40;2.20;;;10.30;99.90;;;;;;5071066;28;20023;-51
2022/01/04 06:27:21;;;;;;;3.60;2.15;;;10.30;99.90;;;;;;5071479;28;20024;-48
2022/01/04 06:29:47;;;;;;;3.38;2.70;;;10.40;99.90;;;;;;5071295;28;20551;-51
2022/01/04 06:32:13;;;;;;;2.58;2.38;;;10.30;99.90;;;;;;5071101;28;20025;-53
2022/01/04 06:34:40;;;;;;;2.83;2.22;;;10.30;99.90;;;;;;5071257;28;20036;-52
2022/01/04 06:37:07;;;;;;;2.75;2.50;;;10.30;99.90;;;;;;5071827;28;20396;-51
2022/01/04 06:39:33;;;;;;;8.68;3.03;;;10.30;99.90;;;;;;5075217;28;20028;-48
2022/01/04 06:41:59;;;;;;;2.40;2.30;;;10.40;99.90;;;;;;5075238;28;20032;-50
2022/01/04 06:44:25;;;;;;;3.10;2.13;;;10.30;99.90;;;;;;5075538;28;20029;-51
2022/01/04 06:46:51;;;;;;;3.63;2.40;;;10.30;99.90;;;;;;5074977;28;20039;-51
2022/01/04 06:49:18;;;;;;;3.47;2.58;;;10.30;99.90;;;;;;5076185;28;20021;-46
2022/01/04 06:51:45;;;;;;;3.47;2.97;;;10.30;99.90;;;;;;5074910;28;20110;-53
2022/01/04 06:54:12;;;;;;;2.47;2.10;;;10.40;99.90;;;;;;5075660;28;20477;-53
2022/01/04 06:56:38;;;;;;;5.15;2.45;;;10.40;99.90;;;;;;5075069;28;20468;-53
2022/01/04 06:59:05;;;;;;;14.07;3.70;;;10.40;99.90;;;;;;5074886;28;20111;-50
2022/01/04 07:01:31;;;;;;;2.97;2.03;;;10.40;99.90;;;;;;5074923;28;20024;-53
2022/01/04 07:03:57;;;;;;;4.10;1.70;;;10.40;99.90;;;;;;5074463;28;20078;-50
2022/01/04 07:06:23;;;;;;;4.13;2.10;;;10.40;99.90;;;;;;5074732;28;20025;-51
2022/01/04 07:08:48;;;;;;;4.32;2.10;;;10.40;99.90;;;;;;5075011;28;20495;-55
2022/01/04 07:11:15;;;;;;;5.40;2.70;;;10.40;99.90;;;;;;5074323;28;20055;-54
2022/01/04 07:13:40;;;;;;;3.17;2.53;;;10.40;99.90;;;;;;5074818;28;20043;-50
2022/01/04 07:16:06;;;;;;;2.17;1.98;;;10.40;99.90;;;;;;5074490;28;20024;-52
2022/01/04 07:18:33;;;;;;;4.30;2.40;;;10.40;99.90;;;;;;5074491;28;20063;-52
2022/01/04 07:20:58;;;;;;;4.47;2.70;;;10.40;99.90;;;;;;5073988;28;20027;-52
2022/01/04 07:23:24;;;;;;;3.83;2.95;;;10.40;99.90;;;;;;5074202;28;20029;-50
2022/01/04 07:25:51;;;;;;;3.47;2.40;;;10.40;99.90;;;;;;5073965;28;20083;-52
2022/01/04 07:28:16;;;;;;;2.72;2.10;;;10.40;99.90;;;;;;5074301;28;20017;-52
2022/01/04 07:30:42;;;;;;;2.78;2.30;;;10.40;99.90;;;;;;5073714;28;20098;-53
2022/01/04 07:33:07;;;;;;;4.65;2.30;;;10.40;99.90;;;;;;5074088;28;20071;-52
2022/01/04 07:35:33;;;;;;;3.63;2.20;;;10.40;99.90;;;;;;5074102;28;20071;-53
2022/01/04 07:37:59;;;;;;;2.47;2.22;;;10.40;99.90;;;;;;5074426;28;20060;-47
2022/01/04 07:40:24;;;;;;;3.58;3.03;;;10.50;99.90;;;;;;5074242;28;20027;-51
2022/01/04 07:42:50;;;;;;;2.17;2.08;;;10.60;99.90;;;;;;5073933;28;20039;-50
2022/01/04 07:45:16;;;;;;;2.67;2.40;;;10.60;99.90;;;;;;5073934;28;20016;-50
2022/01/04 07:47:42;;;;;;;2.72;2.60;;;10.60;99.90;;;;;;5074291;28;20021;-52
2022/01/04 07:50:09;;;;;;;2.80;2.20;;;10.50;99.90;;;;;;5072613;28;20025;-49
2022/01/04 07:52:35;;;;;;;5.20;3.88;;;10.60;99.90;;;;;;5073852;28;20035;-54
2022/01/04 07:55:01;;;;;;;5.13;3.90;;;10.70;99.90;;;;;;5073860;28;20021;-54
2022/01/04 07:57:27;;;;;;;3.63;2.83;;;10.60;99.90;;;;;;5073886;28;20032;-50
2022/01/04 07:59:53;;;;;;;4.47;3.05;;;10.60;99.90;;;;;;5073369;28;20031;-55
2022/01/04 08:02:18;;;;;;;5.57;2.53;;;10.50;99.90;;;;;;5073579;28;20056;-54
2022/01/04 08:04:44;;;;;;;1.95;1.27;;;10.50;99.90;;;;;;5073852;28;20025;-49
2022/01/04 08:07:09;;;;;;;2.35;1.55;;;10.40;99.90;;;;;;5073757;28;20078;-50
2022/01/04 08:09:35;;;;;;;2.58;0.77;;;10.30;99.90;;;;;;5073428;28;20027;-47
2022/01/04 08:12:00;;;;;;;1.95;0.77;;;10.20;99.90;;;;;;5073649;28;20545;-50
2022/01/04 08:14:26;;;;;;;1.52;0.90;;;10.20;99.90;;;;;;5073487;28;20033;-53
2022/01/04 08:16:53;;;;;;;1.10;1.00;;;10.10;99.90;;;;;;5073508;28;20494;-51
2022/01/04 08:19:18;;;;;;;4.72;0.93;;;9.70;99.90;;;;;;5073171;28;20024;-47
2022/01/04 08:21:44;;;;;;;1.35;0.88;;;9.60;99.90;;;;;;5074503;28;20111;-54
2022/01/04 08:24:10;;;;;;;0.90;0.60;;;9.50;99.90;;;;;;5064714;28;20025;-54
2022/01/04 08:26:36;;;;;;;0.50;0.50;;;9.40;99.90;;;;;;5053337;28;20017;-57
2022/01/04 08:29:02;;;;;;;0.60;0.60;;;9.30;99.90;;;;;;5086821;28;20507;-49
2022/01/04 08:31:28;;;;;;;2.97;0.80;;;9.20;99.90;;;;;;5093506;28;20597;-55
2022/01/04 08:33:54;;;;;;;1.48;1.38;;;9.20;99.90;;;;;;5075184;28;20126;-55
2022/01/04 08:36:22;;;;;;;1.25;1.10;;;9.00;99.90;;;;;;5093397;28;20035;-52
2022/01/04 08:38:47;;;;;;;1.75;1.65;;;8.90;99.90;;;;;;5088503;28;20391;-51
2022/01/04 08:41:13;;;;;;;1.95;1.77;;;8.90;99.90;;;;;;5091765;28;20048;-53
2022/01/04 08:43:39;;;;;;;4.55;2.40;;;8.80;99.90;;;;;;5085354;28;20021;-58
2022/01/04 08:46:04;;;;;;;2.13;2.00;;;8.80;99.90;;;;;;5073060;28;20028;-52
2022/01/04 08:48:30;;;;;;;3.30;2.40;;;8.80;99.90;;;;;;5084944;28;20541;-55
2022/01/04 08:50:55;;;;;;;2.95;2.72;;;8.90;99.90;;;;;;5091271;28;20020;-53
2022/01/04 08:53:21;;;;;;;5.05;3.13;;;8.90;99.90;;;;;;5076643;28;20050;-52
2022/01/04 08:55:47;;;;;;;3.13;2.58;;;8.80;99.90;;;;;;5072559;28;20028;-51
2022/01/04 08:58:13;;;;;;;2.65;2.45;;;8.80;99.90;;;;;;5088371;28;20030;-51
2022/01/04 09:00:39;;;;;;;3.35;3.05;;;8.80;99.90;;;;;;5090055;28;20064;-48
2022/01/04 09:03:04;;;;;;;2.45;2.25;;;8.80;99.90;;;;;;5089512;28;20126;-51
2022/01/04 09:05:31;;;;;;;3.10;2.90;;;8.90;99.90;;;;;;5092469;28;20043;-48
2022/01/04 09:07:57;;;;;;;2.58;2.38;;;8.90;99.90;;;;;;5092507;28;20418;-51
2022/01/04 09:10:23;;;;;;;5.18;2.40;;;8.80;99.90;;;;;;5092294;28;20028;-53
2022/01/04 09:12:59;;;;;;;3.17;2.58;;;8.70;99.90;;;;;;5074468;28;20034;-52
2022/01/04 09:20:39;;;;;;;2.60;2.40;;;8.90;99.90;;;;;;5091688;28;20526;-53
2022/01/04 09:23:04;;;;;;;2.30;2.20;;;8.90;99.90;;;;;;5092382;28;20640;-50
2022/01/04 09:25:30;;;;;;;2.80;2.60;;;8.90;99.90;;;;;;5092506;28;20020;-49
2022/01/04 09:27:56;;;;;;;1.77;1.67;;;8.70;99.90;;;;;;5092651;28;20052;-51
2022/01/04 09:30:23;;;;;;;3.45;2.13;;;8.50;99.90;;;;;;5091998;28;20043;-54
2022/01/04 09:32:48;;;;;;;2.38;1.98;;;8.50;99.90;;;;;;5092064;28;20032;-51
2022/01/04 09:35:14;;;;;;;2.00;1.90;;;8.50;99.90;;;;;;5092523;28;20571;-49
2022/01/04 09:37:40;;;;;;;1.80;1.70;;;8.60;99.90;;;;;;5087844;28;20120;-48
2022/01/04 09:40:08;;;;;;;4.50;1.50;;;8.50;99.90;;;;;;5092060;28;20464;-50
2022/01/04 09:42:37;;;;;;;3.60;1.40;;;8.40;99.90;;;;;;5083091;28;20029;-50
2022/01/04 09:45:03;;;;;;;1.48;1.30;;;8.50;99.90;;;;;;5072221;28;20044;-49
2022/01/04 09:47:30;;;;;;;1.70;1.60;;;8.40;99.90;;;;;;5086953;28;20026;-49
2022/01/04 09:49:56;;;;;;;2.35;1.30;;;8.50;99.90;;;;;;5091635;28;20016;-47
2022/01/04 09:52:22;;;;;;;2.97;1.20;;;8.30;99.90;;;;;;5092227;28;20024;-50
2022/01/04 09:54:54;;;;;;;3.22;1.27;;;8.50;99.90;;;;;;5088602;28;20551;-54
2022/01/04 09:57:21;;;;;;;1.10;1.00;;;8.60;99.90;;;;;;5081435;28;20020;-57
2022/01/04 09:59:47;;;;;;;1.10;1.00;;;8.50;99.90;;;;;;5080351;28;20551;-55
2022/01/04 10:02:18;;;;;;;0.90;0.90;;;8.60;99.90;;;;;;5086951;28;20746;-50
2022/01/04 10:04:44;;;;;;;1.13;0.95;;;8.60;99.90;;;;;;5083496;28;20027;-56
2022/01/04 10:07:10;;;;;;;3.17;0.90;;;8.60;99.90;;;;;;5076012;28;20013;-57
2022/01/04 10:09:48;;;;;;;1.20;0.98;;;8.50;99.90;;;;;;5089980;28;20111;-56
2022/01/04 10:12:16;;;;;;;2.53;1.52;;;8.40;99.90;;;;;;5088008;28;20103;-47
2022/01/04 10:14:46;;;;;;;1.40;1.27;;;8.40;99.90;;;;;;5071507;28;20476;-53
2022/01/04 10:17:16;;;;;;;1.50;1.40;;;8.30;99.90;;;;;;5089569;28;20169;-49
2022/01/04 10:19:44;;;;;;;1.02;0.90;;;8.50;99.90;;;;;;5087106;28;20059;-51
2022/01/04 10:22:19;;;;;;;1.10;1.00;;;8.50;99.90;;;;;;5091239;28;20024;-56
2022/01/04 10:24:49;;;;;;;3.40;1.38;;;8.40;99.90;;;;;;5091874;28;20028;-50
2022/01/04 10:27:45;;;;;;;1.35;1.27;;;8.40;99.90;;;;;;5076791;28;20107;-50
2022/01/04 10:30:14;;;;;;;3.20;2.15;;;8.50;99.90;;;;;;5054176;28;20036;-49
2022/01/04 10:33:00;;;;;;;3.60;2.33;;;8.50;99.90;;;;;;5076059;28;20020;-55
2022/01/04 10:35:43;;;;;;;4.72;2.72;;;8.60;99.90;;;;;;5078297;28;20032;-53
2022/01/04 10:38:28;;;;;;;25.40;15.02;;;8.70;99.90;;;;;;5071259;28;20033;-56
2022/01/04 10:41:09;;;;;;;17.90;10.73;;;8.70;99.90;;;;;;5070267;28;20102;-53
2022/01/04 10:43:46;;;;;;;4.93;3.70;;;8.80;99.90;;;;;;5090958;28;20035;-54
2022/01/04 10:46:14;;;;;;;2.60;2.40;;;8.80;99.90;;;;;;5078177;28;20480;-53
2022/01/04 10:48:43;;;;;;;2.15;2.05;;;8.90;99.90;;;;;;5091009;28;20042;-48
2022/01/04 10:51:18;;;;;;;1.85;1.75;;;8.90;99.90;;;;;;5091018;28;20044;-52
2022/01/04 10:53:46;;;;;;;2.78;1.85;;;8.90;99.90;;;;;;5083261;28;20021;-52
2022/01/04 10:56:17;;;;;;;3.03;1.58;;;8.90;99.90;;;;;;5080076;28;20035;-51
2022/01/04 10:58:46;;;;;;;1.70;1.20;;;8.90;99.90;;;;;;5054362;28;20024;-51
2022/01/04 11:01:13;;;;;;;1.20;1.10;;;8.90;99.90;;;;;;5085862;28;20036;-52
2022/01/04 11:03:44;;;;;;;0.73;0.73;;;8.90;99.90;;;;;;5074146;28;20024;-54
2022/01/04 11:06:26;;;;;;;1.30;0.60;;;8.90;99.90;;;;;;5082028;28;20094;-53
2022/01/04 11:08:51;;;;;;;1.30;0.77;;;9.00;99.90;;;;;;5085356;28;20020;-51
2022/01/04 11:11:17;;;;;;;1.52;0.73;;;8.90;99.90;;;;;;5070218;28;20523;-55
2022/01/04 11:13:43;;;;;;;0.95;0.52;;;8.80;99.90;;;;;;5080587;28;20535;-56
2022/01/04 11:16:09;;;;;;;1.63;0.70;;;8.70;99.90;;;;;;5076284;28;20038;-48
2022/01/04 11:18:40;;;;;;;0.50;0.50;;;8.70;99.90;;;;;;5071402;28;20375;-53
2022/01/04 11:21:13;;;;;;;0.50;0.50;;;8.60;99.90;;;;;;5090061;28;20065;-51
2022/01/04 11:23:40;;;;;;;0.50;0.50;;;8.60;99.90;;;;;;5079816;28;20032;-53
2022/01/04 11:26:07;;;;;;;0.73;0.40;;;8.50;99.90;;;;;;5074201;28;20023;-49
2022/01/04 11:28:34;;;;;;;0.40;0.40;;;8.40;99.90;;;;;;5093242;28;20219;-46
2022/01/04 11:31:16;;;;;;;0.50;0.50;;;8.50;99.90;;;;;;5094322;28;20032;-52
2022/01/04 11:33:56;;;;;;;0.50;0.50;;;8.50;99.90;;;;;;5094406;28;20107;-53
2022/01/04 11:36:25;;;;;;;0.57;0.40;;;8.50;99.90;;;;;;5093385;28;20386;-56
2022/01/04 11:38:51;;;;;;;0.40;0.40;;;8.40;99.90;;;;;;5094423;28;20391;-53
2022/01/04 11:41:33;;;;;;;2.63;0.43;;;8.30;99.90;;;;;;5082500;28;20041;-53
2022/01/04 11:44:20;;;;;;;0.40;0.40;;;8.30;99.90;;;;;;5074036;28;20442;-47
2022/01/04 11:47:06;;;;;;;0.90;0.43;;;8.30;99.90;;;;;;5074002;28;20108;-54
2022/01/04 11:49:36;;;;;;;0.55;0.55;;;8.30;99.90;;;;;;5073571;28;20204;-54
2022/01/04 11:52:03;;;;;;;1.10;0.60;;;8.30;99.90;;;;;;5073709;28;20074;-50
2022/01/04 11:54:30;;;;;;;0.75;0.75;;;8.30;99.90;;;;;;5093821;28;20073;-56
2022/01/04 11:57:08;;;;;;;0.70;0.70;;;8.30;99.90;;;;;;5094021;28;20081;-56
2022/01/04 11:59:42;;;;;;;1.90;0.70;;;8.30;99.90;;;;;;5093644;28;20107;-55
2022/01/04 12:02:26;;;;;;;1.08;0.98;;;8.20;99.90;;;;;;5093622;28;20042;-54
2022/01/04 12:04:52;;;;;;;0.50;0.50;;;8.20;99.90;;;;;;5093694;28;20425;-52
2022/01/04 12:07:41;;;;;;;0.68;0.68;;;8.30;99.90;;;;;;5093883;28;20038;-52
2022/01/04 12:10:19;;;;;;;18.70;11.02;;;8.30;99.90;;;;;;5093735;28;20020;-53
2022/01/04 12:13:11;;;;;;;11.05;7.28;;;8.20;99.90;;;;;;5093094;28;20388;-58
2022/01/04 12:15:37;;;;;;;17.52;11.27;;;8.30;99.90;;;;;;5083533;28;20493;-53
2022/01/04 12:18:04;;;;;;;2.38;1.95;;;8.30;99.90;;;;;;5084557;28;20099;-53
2022/01/04 12:20:42;;;;;;;0.82;0.80;;;8.30;99.90;;;;;;5079155;28;20410;-52
2022/01/04 12:23:23;;;;;;;2.05;1.02;;;8.30;99.90;;;;;;5093675;28;20376;-55
2022/01/04 12:26:11;;;;;;;3.80;0.88;;;8.30;99.90;;;;;;5093804;28;20024;-49
2022/01/04 12:28:42;;;;;;;2.35;0.57;;;8.30;99.90;;;;;;5093359;28;20027;-55
2022/01/04 12:31:15;;;;;;;1.75;0.50;;;8.30;99.90;;;;;;5076419;28;20073;-56
2022/01/04 12:33:43;;;;;;;1.35;0.60;;;8.30;99.90;;;;;;5072669;28;20143;-54
2022/01/04 12:36:10;;;;;;;0.40;0.40;;;8.30;99.90;;;;;;5086066;28;20046;-57
2022/01/04 12:38:36;;;;;;;0.57;0.57;;;8.40;99.90;;;;;;5093039;28;20115;-53
2022/01/04 12:41:04;;;;;;;0.65;0.65;;;8.50;99.90;;;;;;5092840;28;20111;-54
2022/01/04 12:43:31;;;;;;;0.75;0.75;;;8.60;99.90;;;;;;5092595;28;20028;-54
2022/01/04 12:46:05;;;;;;;3.17;0.52;;;8.50;99.90;;;;;;5093012;28;20027;-57
2022/01/04 12:48:56;;;;;;;0.68;0.35;;;8.60;99.90;;;;;;5107044;22;20045;-50
2022/01/04 12:51:33;;;;;;;3.38;1.08;;;8.60;99.90;;;;;;5053050;28;20146;-47
2022/01/04 12:54:01;;;;;;;3.30;2.00;;;8.60;99.90;;;;;;5035396;28;20021;-46
2022/01/04 12:56:28;;;;;;;1.45;1.25;;;8.60;99.90;;;;;;5052832;28;20379;-42
2022/01/04 12:58:55;;;;;;;1.00;0.60;;;8.60;99.90;;;;;;5052434;28;20469;-48
2022/01/04 13:01:27;;;;;;;1.58;1.00;;;8.60;99.90;;;;;;5052562;28;20029;-44